Terminal Aerodrome Forecast
Issued by NWS

Home | Current Version | Previous Version | Text Only | Print | Product List | Glossary Off
Versions: 1 2 3 4 5 6 7 8 9 10 11 12 13 14 15 16 17

000
FTUS43 KABR 182320
TAFPIR
TAF
KPIR 182320Z 1900/1924 33010KT P6SM BKN150
     FM190100 35008KT P6SM SCT150
     FM190400 01004KT P6SM FEW200
     FM190800 00000KT 2SM BR FEW200
     FM191100 00000KT 1/2SM FG FEW090
     FM191300 VRB03KT 3/4SM BR FEW150
     FM191400 VRB03KT P6SM FEW150
     FM192000 14011KT P6SM FEW250=

USA.gov is the U.S. government's official web portal to all federal, state and local government web resources and services.